Aviation Digital Data Service (ADDS)

Output produced by METARs form (0347 UTC 04 September 2015)
found at http://aviationweather.gov/adds/metars/
 
KGSO 040236Z 0403/0424 VRB03KT P6SM SCT080 BKN250 
     TEMPO 0408/0412 3SM BR 
     FM041500 04005KT P6SM BKN050 
     TEMPO 0421/0424 2SM SHRA BKN025